Time;durP1;ratioP1;P1;durP2;ratioP2;P2;SDS_P1;SDS_P2;PMS_P1;PMS_P2;Temp;Humidity;BMP_temperature;BMP_pressure;BME280_temperature;BME280_humidity;BME280_pressure;Samples;Min_cycle;Max_cycle;Signal;HPM_P1;HPM_P2
2022/08/27 00:01:32;;;;;;;8.45;6.15;;;;;;;19.90;62.86;98054.86;1580546;90;25684;-58
2022/08/27 00:03:59;;;;;;;10.82;6.17;;;;;;;19.93;62.91;98064.40;1579850;90;26437;-58
2022/08/27 00:06:26;;;;;;;14.05;6.45;;;;;;;19.93;62.80;98063.81;1578484;90;25806;-58
2022/08/27 00:08:54;;;;;;;8.93;6.53;;;;;;;19.96;62.92;98073.34;1578055;91;25537;-58
2022/08/27 00:11:22;;;;;;;11.20;6.58;;;;;;;19.96;62.85;98071.95;1578299;89;27571;-59
2022/08/27 00:13:48;;;;;;;10.03;6.15;;;;;;;19.92;62.88;98069.77;1578299;90;25530;-58
2022/08/27 00:16:16;;;;;;;9.05;6.40;;;;;;;19.84;63.24;98073.11;1577986;90;25793;-59
2022/08/27 00:18:45;;;;;;;12.40;6.80;;;;;;;19.78;63.17;98066.33;1578050;90;25738;-58
2022/08/27 00:21:13;;;;;;;12.20;6.50;;;;;;;19.76;63.12;98063.14;1578430;90;25641;-58
2022/08/27 00:23:40;;;;;;;13.05;6.50;;;;;;;19.74;63.15;98066.89;1578029;90;27513;-58
2022/08/27 00:26:07;;;;;;;10.50;6.55;;;;;;;19.75;63.38;98067.89;1578237;89;25518;-58
2022/08/27 00:28:34;;;;;;;10.08;6.78;;;;;;;19.78;63.44;98070.50;1578291;89;25530;-58
2022/08/27 00:31:00;;;;;;;9.28;6.70;;;;;;;19.81;63.47;98071.11;1578429;89;26517;-58
2022/08/27 00:33:27;;;;;;;10.78;6.28;;;;;;;19.83;63.37;98079.84;1578153;89;25629;-58
2022/08/27 00:35:54;;;;;;;9.33;6.30;;;;;;;19.85;63.37;98082.23;1578377;89;28282;-58
2022/08/27 00:38:22;;;;;;;9.20;6.85;;;;;;;19.87;63.28;98088.20;1578065;90;25496;-58
2022/08/27 00:40:50;;;;;;;12.40;6.95;;;;;;;19.87;63.47;98078.47;1578375;90;25700;-59
2022/08/27 00:43:32;;;;;;;13.05;7.60;;;;;;;19.84;63.39;98080.06;1578321;89;25738;-59
2022/08/27 00:46:04;;;;;;;11.03;6.47;;;;;;;19.80;63.46;98082.01;1578141;89;25516;-58
2022/08/27 00:48:34;;;;;;;10.70;7.15;;;;;;;19.77;63.45;98082.20;1577204;90;27509;-58
2022/08/27 00:51:02;;;;;;;9.65;6.37;;;;;;;19.75;63.66;98075.45;1578515;90;25617;-58
2022/08/27 00:53:32;;;;;;;13.03;7.00;;;;;;;19.71;63.55;98085.77;1578285;90;25663;-59
2022/08/27 00:56:14;;;;;;;10.18;6.72;;;;;;;19.69;63.56;98077.20;1578314;90;26158;-58
2022/08/27 00:58:45;;;;;;;11.22;6.90;;;;;;;19.67;63.97;98085.16;1578175;90;25498;-59
2022/08/27 01:01:16;;;;;;;13.95;7.35;;;;;;;19.51;64.19;98079.89;1578379;90;27518;-58
2022/08/27 01:03:47;;;;;;;14.73;7.67;;;;;;;19.37;64.56;98080.60;1578218;90;25728;-59
2022/08/27 01:06:16;;;;;;;12.43;6.37;;;;;;;19.30;64.57;98077.79;1580682;89;25450;-58
2022/08/27 01:08:47;;;;;;;12.40;6.37;;;;;;;19.20;65.80;98074.36;1578214;90;25698;-58
2022/08/27 01:11:14;;;;;;;12.10;6.92;;;;;;;19.04;66.49;98067.88;1578408;89;25700;-58
2022/08/27 01:13:40;;;;;;;12.35;7.20;;;;;;;18.92;67.00;98070.38;1578033;90;27446;-59
2022/08/27 01:16:08;;;;;;;11.75;7.95;;;;;;;18.90;66.58;98071.92;1578076;89;25527;-58
2022/08/27 01:18:38;;;;;;;10.40;6.70;;;;;;;18.93;67.09;98074.73;1578202;90;25530;-58
2022/08/27 01:21:13;;;;;;;11.80;7.65;;;;;;;18.98;66.99;98072.78;1578206;90;25865;-58
2022/08/27 01:24:00;;;;;;;11.83;7.42;;;;;;;18.97;67.01;98070.58;1578559;90;25443;-59
2022/08/27 01:26:28;;;;;;;11.35;7.17;;;;;;;18.91;67.14;98073.54;1577410;90;27607;-58
2022/08/27 01:28:55;;;;;;;10.18;7.47;;;;;;;18.90;67.31;98076.89;1578143;90;26111;-58
2022/08/27 01:31:21;;;;;;;13.25;7.70;;;;;;;18.91;67.42;98078.48;1578281;89;25668;-58
2022/08/27 01:34:03;;;;;;;13.40;7.60;;;;;;;18.89;67.68;98076.70;1578309;90;26470;-59
2022/08/27 01:36:29;;;;;;;11.53;7.67;;;;;;;18.92;67.64;98080.09;1578028;90;25575;-58
2022/08/27 01:38:55;;;;;;;10.93;7.40;;;;;;;18.88;68.02;98080.63;1578280;89;27473;-58
2022/08/27 01:41:23;;;;;;;12.07;7.35;;;;;;;18.88;67.90;98082.63;1578215;90;25800;-58
2022/08/27 01:43:50;;;;;;;11.50;7.30;;;;;;;18.91;67.94;98084.64;1578026;90;25687;-59
2022/08/27 01:46:23;;;;;;;10.50;7.28;;;;;;;18.91;67.49;98086.03;1577984;90;26980;-58
2022/08/27 01:48:50;;;;;;;12.98;7.78;;;;;;;18.91;67.74;98084.64;1577537;90;25648;-58
2022/08/27 01:51:16;;;;;;;10.32;7.35;;;;;;;18.86;67.78;98081.63;1578000;89;27464;-58
2022/08/27 01:53:42;;;;;;;10.78;7.08;;;;;;;18.72;67.75;98075.94;1578193;90;25722;-59
2022/08/27 01:56:10;;;;;;;12.18;7.90;;;;;;;18.62;67.84;98078.84;1578351;89;25554;-58
2022/08/27 01:58:37;;;;;;;9.75;7.55;;;;;;;18.56;67.76;98076.98;1578180;90;25749;-58
2022/08/27 02:01:09;;;;;;;10.80;8.05;;;;;;;18.56;67.59;98081.16;1578250;89;25442;-58
2022/08/27 02:03:36;;;;;;;14.05;7.40;;;;;;;18.57;67.40;98084.16;1578328;90;27507;-58
2022/08/27 02:06:09;;;;;;;12.68;7.50;;;;;;;18.58;67.79;98082.16;1583054;89;25628;-58
2022/08/27 02:08:36;;;;;;;12.13;7.60;;;;;;;18.53;67.82;98081.91;1621188;88;25690;-58
2022/08/27 02:11:03;;;;;;;13.08;7.62;;;;;;;18.48;67.97;98083.67;1605105;89;25839;-58
2022/08/27 02:13:29;;;;;;;10.18;7.33;;;;;;;18.49;67.70;98081.09;1605263;89;25704;-58
2022/08/27 02:15:55;;;;;;;10.75;6.95;;;;;;;18.52;67.55;98070.04;1605296;89;27507;-58
2022/08/27 02:18:22;;;;;;;11.48;6.72;;;;;;;18.55;67.56;98071.24;1620884;88;25540;-58
2022/08/27 02:20:48;;;;;;;11.28;6.80;;;;;;;18.54;67.37;98070.44;1621402;87;25450;-59
2022/08/27 02:23:15;;;;;;;11.35;6.80;;;;;;;18.47;67.69;98070.95;1604907;89;26959;-59
2022/08/27 02:25:42;;;;;;;9.98;6.80;;;;;;;18.46;67.54;98072.14;1605264;89;25438;-58
2022/08/27 02:28:09;;;;;;;12.78;6.70;;;;;;;18.46;67.86;98069.37;1604907;89;27369;-58
2022/08/27 02:30:36;;;;;;;11.60;6.67;;;;;;;18.42;67.49;98071.52;1621070;88;25645;-58
2022/08/27 02:33:04;;;;;;;13.95;7.03;;;;;;;18.36;67.55;98073.04;1621187;88;25766;-58
2022/08/27 02:35:37;;;;;;;10.50;6.53;;;;;;;18.36;67.66;98073.65;1604845;89;25745;-59
2022/08/27 02:38:02;;;;;;;11.35;7.35;;;;;;;18.30;67.75;98077.33;1604730;89;25716;-58
2022/08/27 02:40:29;;;;;;;12.70;7.00;;;;;;;18.26;67.74;98075.92;1605393;89;27464;-58
2022/08/27 02:42:55;;;;;;;13.50;6.90;;;;;;;18.29;67.85;98072.98;1620859;88;27247;-58
2022/08/27 02:45:21;;;;;;;9.70;6.90;;;;;;;18.32;67.66;98077.77;1621293;88;25439;-58
2022/08/27 02:47:47;;;;;;;11.05;7.12;;;;;;;18.32;67.65;98076.38;1604938;89;25687;-59
2022/08/27 02:50:15;;;;;;;13.35;7.12;;;;;;;18.31;67.86;98077.56;1604765;89;25741;-58
2022/08/27 02:52:42;;;;;;;10.38;6.50;;;;;;;18.31;68.06;98073.41;1605110;89;27518;-58
2022/08/27 02:55:10;;;;;;;14.23;7.55;;;;;;;18.28;68.11;98072.77;1620974;88;25661;-59
2022/08/27 02:57:36;;;;;;;11.65;7.83;;;;;;;18.28;68.04;98073.55;1620945;88;25660;-58
2022/08/27 03:00:06;;;;;;;12.53;7.35;;;;;;;18.32;68.04;98073.59;1621232;88;25780;-58
2022/08/27 03:02:32;;;;;;;;;;;;;;;18.33;68.27;98079.34;1623412;88;25669;-58
2022/08/27 03:04:58;;;;;;;14.70;7.75;;;;;;;18.28;68.69;98081.88;1632651;87;27505;-58
2022/08/27 03:07:24;;;;;;;12.45;8.08;;;;;;;18.18;69.16;98084.75;1630054;87;25672;-58
2022/08/27 03:09:51;;;;;;;13.22;8.00;;;;;;;18.14;69.40;98081.73;1628480;87;25704;-58
2022/08/27 03:12:18;;;;;;;11.93;8.03;;;;;;;18.06;69.88;98081.63;1628480;87;25743;-58
2022/08/27 03:14:44;;;;;;;13.85;8.50;;;;;;;18.01;69.99;98073.64;1628904;87;25509;-58
2022/08/27 03:19:55;;;;;;;12.88;7.87;;;;;;;17.91;70.23;98062.63;1628398;88;25490;-58
2022/08/27 03:22:21;;;;;;;14.00;8.13;;;;;;;17.85;70.36;98059.20;1628876;87;25730;-58
2022/08/27 03:24:47;;;;;;;14.40;7.40;;;;;;;17.92;70.58;98060.66;1629290;87;25933;-58
2022/08/27 03:27:14;;;;;;;12.05;7.33;;;;;;;17.96;69.94;98060.11;1628512;88;25806;-58
2022/08/27 03:29:40;;;;;;;10.48;7.20;;;;;;;17.99;69.78;98057.19;1628601;88;27463;-58
2022/08/27 03:32:06;;;;;;;10.35;7.35;;;;;;;17.97;69.61;98045.66;1628874;86;25771;-58
2022/08/27 03:34:33;;;;;;;14.23;7.92;;;;;;;17.94;69.64;98046.62;1628709;88;25540;-58
2022/08/27 03:37:00;;;;;;;11.33;7.20;;;;;;;17.91;69.73;98050.76;1628486;88;25949;-60
2022/08/27 03:39:26;;;;;;;12.78;7.60;;;;;;;17.93;69.75;98051.16;1628840;87;25435;-58
2022/08/27 03:41:54;;;;;;;11.70;7.20;;;;;;;17.91;69.56;98047.38;1628406;87;27402;-58
2022/08/27 03:44:22;;;;;;;14.83;8.18;;;;;;;17.83;69.75;98047.68;1628603;87;25751;-58
2022/08/27 03:46:51;;;;;;;11.65;7.53;;;;;;;17.84;69.65;98053.45;1627783;87;25709;-59
2022/08/27 03:49:19;;;;;;;12.63;6.87;;;;;;;17.86;70.13;98056.63;1628893;87;26346;-58
2022/08/27 03:51:45;;;;;;;12.23;7.65;;;;;;;17.76;70.09;98058.11;1628666;87;25529;-59
2022/08/27 03:54:12;;;;;;;9.10;7.00;;;;;;;17.71;70.12;98048.16;1628477;87;27601;-58
2022/08/27 03:56:40;;;;;;;11.70;7.30;;;;;;;17.65;70.60;98051.05;1628865;87;25521;-59
2022/08/27 03:59:07;;;;;;;10.88;6.92;;;;;;;17.59;70.53;98052.55;1628320;87;25696;-58
2022/08/27 04:01:34;;;;;;;12.75;7.85;;;;;;;17.55;70.91;98053.88;1628930;87;25731;-59
2022/08/27 04:04:01;;;;;;;12.65;7.65;;;;;;;17.56;70.74;98066.58;1628833;88;25651;-59
2022/08/27 04:06:27;;;;;;;12.47;7.92;;;;;;;17.54;70.67;98068.91;1628388;87;27500;-58
2022/08/27 04:08:53;;;;;;;15.85;7.80;;;;;;;17.63;70.49;98076.36;1628435;87;25511;-58
2022/08/27 04:11:20;;;;;;;18.00;7.87;;;;;;;17.70;70.28;98074.25;1628607;87;25493;-58
2022/08/27 04:13:47;;;;;;;13.70;7.60;;;;;;;17.74;70.21;98079.27;1624671;87;26635;-58
2022/08/27 04:16:13;;;;;;;11.60;8.08;;;;;;;17.76;70.30;98084.44;1628910;88;25710;-58
2022/08/27 04:18:40;;;;;;;11.88;7.45;;;;;;;17.75;70.41;98082.81;1628354;87;27525;-58
2022/08/27 04:21:10;;;;;;;12.10;8.05;;;;;;;17.76;70.29;98087.98;1628353;87;25699;-59
2022/08/27 04:23:38;;;;;;;11.53;7.25;;;;;;;17.81;70.05;98090.44;1628922;88;30000;-58
2022/08/27 04:26:07;;;;;;;14.20;7.72;;;;;;;17.85;70.02;98098.00;1628790;87;25692;-60
2022/08/27 04:28:33;;;;;;;10.80;7.37;;;;;;;17.87;70.09;98085.93;1628695;87;25772;-58
2022/08/27 04:31:02;;;;;;;15.75;8.90;;;;;;;17.86;69.92;98093.47;1628740;87;28215;-58
2022/08/27 04:33:31;;;;;;;15.53;7.42;;;;;;;17.91;69.74;98092.34;1628767;88;25964;-59
2022/08/27 04:35:59;;;;;;;11.57;7.28;;;;;;;18.00;69.73;98100.35;1628444;87;25702;-58
2022/08/27 04:38:26;;;;;;;11.40;6.58;;;;;;;18.05;69.50;98098.03;1602922;89;25909;-58
2022/08/27 04:43:37;;;;;;;11.57;7.72;;;;;;;18.14;69.44;98089.45;1618347;88;25629;-58
2022/08/27 04:46:04;;;;;;;12.53;7.53;;;;;;;18.23;69.46;98100.26;1614965;87;26348;-59
2022/08/27 04:48:30;;;;;;;14.00;6.97;;;;;;;18.36;69.45;98103.55;1627610;88;25642;-59
2022/08/27 04:50:56;;;;;;;15.25;7.15;;;;;;;18.46;69.07;98111.78;1628846;88;25936;-59
2022/08/27 04:53:23;;;;;;;14.23;7.75;;;;;;;18.51;69.26;98110.04;1628850;87;25667;-58
2022/08/27 04:55:54;;;;;;;15.25;7.40;;;;;;;18.58;69.08;98107.94;1624357;87;27456;-58
2022/08/27 04:58:22;;;;;;;12.90;7.20;;;;;;;18.65;69.33;98114.16;1617601;87;25487;-58
2022/08/27 05:00:54;;;;;;;11.40;8.43;;;;;;;18.71;69.33;98113.21;1628901;88;25634;-58
2022/08/27 05:03:22;;;;;;;13.98;7.75;;;;;;;18.77;69.36;98111.69;1622452;87;25760;-58
2022/08/27 05:05:50;;;;;;;11.05;7.58;;;;;;;18.86;69.65;98108.58;1615817;87;25755;-58
2022/08/27 05:08:16;;;;;;;13.05;8.18;;;;;;;18.92;69.75;98106.47;1607224;87;27517;-59
2022/08/27 05:10:46;;;;;;;12.70;8.30;;;;;;;19.04;69.79;98105.37;1598214;89;25716;-58
2022/08/27 05:13:14;;;;;;;14.28;7.70;;;;;;;19.14;69.93;98108.64;1598680;89;25720;-59
2022/08/27 05:15:41;;;;;;;11.15;7.90;;;;;;;19.26;69.97;98108.31;1599358;89;25755;-59
2022/08/27 05:18:08;;;;;;;11.73;7.67;;;;;;;19.40;70.19;98107.61;1599707;89;25717;-58
2022/08/27 05:20:51;;;;;;;14.98;8.60;;;;;;;19.58;70.45;98104.74;1599410;89;27505;-58
2022/08/27 05:23:17;;;;;;;17.00;10.68;;;;;;;19.72;71.09;98106.22;1598787;89;25886;-58
2022/08/27 05:25:48;;;;;;;12.60;9.23;;;;;;;19.88;71.65;98102.30;1599543;89;25710;-58
2022/08/27 05:28:16;;;;;;;13.62;9.55;;;;;;;19.97;72.08;98100.57;1599681;89;26762;-58
2022/08/27 05:30:45;;;;;;;17.23;9.70;;;;;;;20.11;72.29;98104.00;1599742;89;25686;-58
2022/08/27 05:33:16;;;;;;;14.47;10.20;;;;;;;20.25;72.32;98099.08;1599681;89;27497;-58
2022/08/27 05:35:48;;;;;;;15.83;10.23;;;;;;;20.34;72.90;98100.91;1599273;89;25716;-58
2022/08/27 05:38:15;;;;;;;16.15;8.38;;;;;;;20.36;72.98;98102.70;1599610;89;25728;-58
2022/08/27 05:40:42;;;;;;;12.68;8.93;;;;;;;20.51;71.65;98118.84;1599281;89;25816;-58
2022/08/27 05:43:14;;;;;;;13.72;8.18;;;;;;;20.55;71.01;98120.22;1599551;89;25634;-58
2022/08/27 05:45:47;;;;;;;15.95;10.03;;;;;;;20.64;71.88;98121.25;1599608;89;27492;-58
2022/08/27 05:48:15;;;;;;;17.70;8.75;;;;;;;20.78;71.75;98125.42;1599585;89;25665;-58
2022/08/27 05:50:44;;;;;;;12.20;8.05;;;;;;;20.86;71.32;98116.48;1599283;89;25641;-58
2022/08/27 05:53:12;;;;;;;14.35;8.83;;;;;;;20.89;70.46;98117.67;1599214;89;25712;-58
2022/08/27 05:55:42;;;;;;;13.08;8.10;;;;;;;20.83;70.21;98102.55;1599543;89;25797;-58
2022/08/27 06:01:03;;;;;;;13.15;9.35;;;;;;;20.70;69.56;98101.57;1599467;89;28522;-59
2022/08/27 06:03:24;;;;;;;15.00;9.03;;;;;;;20.72;69.24;98090.81;1599335;89;25633;-58
2022/08/27 06:06:03;;;;;;;13.60;9.28;;;;;;;20.91;69.17;98111.14;1599302;89;25765;-58
2022/08/27 06:08:30;;;;;;;11.95;8.58;;;;;;;21.14;68.83;98101.59;1596705;89;25453;-58
2022/08/27 06:11:03;;;;;;;16.32;9.75;;;;;;;21.23;67.69;98103.37;1594835;89;28457;-58
2022/08/27 06:13:31;;;;;;;13.60;8.90;;;;;;;21.24;67.69;98112.53;1594902;89;25913;-58
2022/08/27 06:16:14;;;;;;;14.30;8.75;;;;;;;21.34;67.57;98115.09;1594901;89;25471;-58
2022/08/27 06:18:43;;;;;;;13.72;8.83;;;;;;;21.35;67.67;98105.53;1594834;90;25974;-58
2022/08/27 06:21:12;;;;;;;13.68;8.83;;;;;;;21.37;67.59;98118.48;1607777;89;25847;-58
2022/08/27 06:23:39;;;;;;;11.48;8.08;;;;;;;21.51;67.45;98112.89;1607803;89;27462;-60
2022/08/27 06:26:11;;;;;;;13.35;8.43;;;;;;;21.58;66.95;98117.64;1607493;89;25498;-58
2022/08/27 06:28:40;;;;;;;13.22;8.68;;;;;;;21.75;67.46;98120.78;1607806;89;25486;-59
2022/08/27 06:31:12;;;;;;;14.30;8.68;;;;;;;22.01;66.99;98129.88;1607517;89;25913;-58
2022/08/27 06:33:40;;;;;;;10.40;8.35;;;;;;;22.21;66.38;98145.55;1607149;89;25893;-58
2022/08/27 06:36:11;;;;;;;16.35;10.78;;;;;;;22.35;67.10;98134.92;1607481;89;27440;-59
2022/08/27 06:38:39;;;;;;;18.75;11.43;;;;;;;22.51;67.47;98128.83;1607826;89;25797;-58
2022/08/27 06:41:10;;;;;;;16.55;10.68;;;;;;;22.70;67.51;98130.95;1607811;89;25474;-59
2022/08/27 06:43:39;;;;;;;17.92;10.68;;;;;;;22.93;67.74;98143.55;1582488;89;25698;-58
2022/08/27 06:46:09;;;;;;;17.75;10.95;;;;;;;22.99;67.50;98130.73;1607888;89;25483;-61
2022/08/27 06:48:36;;;;;;;15.83;11.00;;;;;;;23.14;67.21;98131.41;1607841;89;28364;-58
2022/08/27 06:51:12;;;;;;;19.00;10.55;;;;;;;23.33;67.07;98129.25;1607378;89;25685;-59
2022/08/27 06:53:40;;;;;;;17.77;10.55;;;;;;;23.55;66.80;98131.25;1609901;89;25698;-60
2022/08/27 06:56:08;;;;;;;14.80;10.35;;;;;;;23.86;65.93;98139.54;1609407;89;25922;-59
2022/08/27 06:58:35;;;;;;;15.65;10.30;;;;;;;23.94;66.61;98147.42;1609429;88;25713;-59
2022/08/27 07:01:03;;;;;;;16.25;10.58;;;;;;;24.15;66.14;98151.20;1609622;89;27488;-65
2022/08/27 07:03:30;;;;;;;14.45;9.90;;;;;;;24.22;65.75;98151.72;1607894;89;25803;-59
2022/08/27 07:06:04;;;;;;;12.45;9.58;;;;;;;24.34;64.94;98148.97;1609124;89;25713;-61
2022/08/27 07:08:31;;;;;;;13.00;9.60;;;;;;;24.52;64.07;98156.34;1621236;86;25750;-59
2022/08/27 07:10:58;;;;;;;12.70;9.23;;;;;;;24.63;64.51;98163.17;1641060;86;26177;-62
2022/08/27 07:13:24;;;;;;;16.05;9.95;;;;;;;24.82;64.62;98163.11;1641051;86;27439;-66
2022/08/27 07:15:50;;;;;;;13.85;10.03;;;;;;;24.97;63.44;98169.31;1609459;88;25714;-64
2022/08/27 07:18:17;;;;;;;15.20;8.88;;;;;;;25.11;62.75;98165.50;1586622;89;25789;-59
2022/08/27 07:20:43;;;;;;;13.20;9.08;;;;;;;25.27;63.28;98171.06;1641266;86;25789;-63
2022/08/27 07:23:09;;;;;;;12.35;8.85;;;;;;;25.35;63.72;98170.30;1639676;86;25649;-61
2022/08/27 07:25:39;;;;;;;15.70;9.70;;;;;;;25.34;63.17;98168.73;1638703;86;27414;-62
2022/08/27 07:28:05;;;;;;;12.30;8.33;;;;;;;25.56;62.14;98169.16;1610162;88;25712;-61
2022/08/27 07:30:32;;;;;;;14.23;9.40;;;;;;;25.84;60.86;98168.46;1609413;88;25735;-60
2022/08/27 07:32:58;;;;;;;14.78;8.93;;;;;;;25.96;59.35;98172.64;1586693;89;26054;-67
2022/08/27 07:35:24;;;;;;;14.05;9.23;;;;;;;26.12;60.15;98176.14;1579965;89;25457;-62
2022/08/27 07:37:51;;;;;;;14.47;9.58;;;;;;;26.27;59.33;98179.45;1575115;91;27529;-61
2022/08/27 07:40:17;;;;;;;13.53;9.30;;;;;;;26.42;59.75;98172.94;1574662;90;25814;-62
2022/08/27 07:45:29;;;;;;;13.50;8.85;;;;;;;26.76;56.90;98181.44;1626345;88;25530;-61
2022/08/27 07:47:56;;;;;;;12.82;8.60;;;;;;;26.70;57.36;98182.58;1626671;88;25566;-60
2022/08/27 07:50:22;;;;;;;12.45;8.98;;;;;;;26.96;57.73;98185.60;1626470;88;27445;-60
2022/08/27 07:52:52;;;;;;;11.83;8.73;;;;;;;27.17;57.00;98187.13;1626683;88;25636;-60
2022/08/27 07:55:19;;;;;;;12.35;9.30;;;;;;;27.31;56.12;98191.62;1627088;88;25645;-60
2022/08/27 07:57:47;;;;;;;12.10;8.65;;;;;;;27.49;56.54;98188.19;1599860;89;25757;-60
2022/08/27 08:00:13;;;;;;;8.98;8.05;;;;;;;27.60;57.67;98191.50;1602671;88;25724;-60
2022/08/27 08:02:43;;;;;;;11.53;8.23;;;;;;;27.84;54.74;98194.13;1599888;89;29559;-59
2022/08/27 08:05:15;;;;;;;13.00;8.25;;;;;;;28.01;55.86;98199.72;1600025;86;25478;-60
2022/08/27 08:07:43;;;;;;;10.95;8.63;;;;;;;28.20;54.22;98200.78;1600014;89;25832;-60
2022/08/27 08:10:11;;;;;;;10.55;7.70;;;;;;;28.33;53.76;98195.23;1599495;89;25795;-60
2022/08/27 08:12:39;;;;;;;13.28;7.72;;;;;;;28.37;53.54;98198.72;1613074;88;25635;-60
2022/08/27 08:15:09;;;;;;;9.03;7.45;;;;;;;28.54;52.94;98198.02;1613049;89;27491;-60
2022/08/27 08:17:38;;;;;;;10.72;8.08;;;;;;;28.79;52.50;98202.13;1612906;88;25470;-67
2022/08/27 08:20:08;;;;;;;11.88;7.65;;;;;;;28.80;50.95;98202.28;1613077;88;25767;-67
2022/08/27 08:22:34;;;;;;;10.95;7.37;;;;;;;28.80;53.04;98201.48;1613052;88;25766;-67
2022/08/27 08:25:01;;;;;;;10.40;7.60;;;;;;;29.15;50.18;98202.23;1613025;88;25695;-62
2022/08/27 08:27:27;;;;;;;10.15;7.45;;;;;;;29.42;51.20;98205.20;1612608;89;27497;-64
2022/08/27 08:29:54;;;;;;;8.95;6.92;;;;;;;29.65;51.72;98213.13;1612978;88;25864;-64
2022/08/27 08:32:20;;;;;;;10.53;7.62;;;;;;;29.77;51.07;98219.37;1613022;89;25864;-59
2022/08/27 08:34:47;;;;;;;12.30;7.12;;;;;;;30.16;50.48;98218.39;1612863;89;25475;-58
2022/08/27 08:37:14;;;;;;;13.50;9.20;;;;;;;30.47;49.78;98219.12;1612933;89;25647;-58
2022/08/27 08:39:40;;;;;;;10.43;7.33;;;;;;;30.65;49.07;98225.50;1612768;88;27454;-62
2022/08/27 08:42:12;;;;;;;12.40;7.50;;;;;;;30.91;48.72;98221.74;1612657;89;25462;-60
2022/08/27 08:44:44;;;;;;;11.50;6.40;;;;;;;31.22;48.47;98230.00;1609566;89;25729;-61
2022/08/27 08:47:18;;;;;;;11.22;6.62;;;;;;;31.62;47.53;98232.65;1612017;89;25822;-62
2022/08/27 08:50:14;;;;;;;9.35;6.67;;;;;;;31.88;47.47;98230.94;1613032;88;25439;-61
2022/08/27 08:53:02;;;;;;;8.88;6.65;;;;;;;32.21;47.28;98238.86;1612821;89;27552;-62
2022/08/27 08:55:46;;;;;;;9.13;6.03;;;;;;;32.35;45.62;98244.48;1612710;88;25722;-61
2022/08/27 08:59:02;;;;;;;8.43;5.80;;;;;;;32.17;46.20;98247.52;1613046;88;25264;-62
2022/08/27 09:01:28;;;;;;;9.40;6.70;;;;;;;32.25;46.59;98249.40;1612791;88;27846;-63
2022/08/27 09:03:59;;;;;;;13.72;6.00;;;;;;;32.35;46.92;98250.16;1612833;89;25644;-58
2022/08/27 09:06:46;;;;;;;9.20;5.78;;;;;;;32.09;46.81;98250.49;1613113;88;27510;-58
2022/08/27 09:09:43;;;;;;;10.40;6.65;;;;;;;31.98;46.48;98250.98;1604928;89;25898;-59
2022/08/27 09:12:15;;;;;;;8.53;6.15;;;;;;;31.46;46.10;98249.30;1594932;89;25721;-58
2022/08/27 09:14:55;;;;;;;10.10;5.80;;;;;;;31.10;47.13;98250.89;1594998;90;25848;-59
2022/08/27 09:17:22;;;;;;;9.05;5.78;;;;;;;31.23;47.17;98254.23;1595030;90;25654;-59
2022/08/27 09:19:49;;;;;;;9.63;6.17;;;;;;;31.48;46.79;98243.33;1594793;89;27454;-58
2022/08/27 09:22:52;;;;;;;9.50;5.58;;;;;;;31.88;47.59;98245.91;1594983;90;25841;-58
2022/08/27 09:25:33;;;;;;;9.05;6.40;;;;;;;32.13;45.77;98244.05;1594834;90;25505;-59
2022/08/27 09:31:16;;;;;;;9.30;6.65;;;;;;;32.22;46.31;98238.20;1594992;90;25453;-59
2022/08/27 09:33:44;;;;;;;8.88;6.25;;;;;;;32.75;44.09;98232.01;1594877;90;27471;-58
2022/08/27 09:36:14;;;;;;;9.60;5.15;;;;;;;32.72;44.28;98234.38;1594546;90;27177;-60
2022/08/27 09:38:56;;;;;;;6.70;4.40;;;;;;;32.46;44.07;98246.84;1594887;89;25736;-59
2022/08/27 09:41:27;;;;;;;6.70;4.22;;;;;;;32.10;44.16;98245.63;1592864;90;26698;-65
2022/08/27 09:44:10;;;;;;;8.35;3.92;;;;;;;31.91;44.43;98245.58;1571833;90;25724;-65
2022/08/27 09:46:37;;;;;;;7.35;4.15;;;;;;;31.83;44.23;98244.33;1594630;90;27552;-65
2022/08/27 09:49:15;;;;;;;8.35;4.08;;;;;;;31.60;43.27;98238.02;1594566;89;25471;-65
2022/08/27 09:51:45;;;;;;;7.08;3.77;;;;;;;31.51;45.03;98238.14;1607661;89;25482;-61
2022/08/27 09:54:44;;;;;;;7.92;3.80;;;;;;;31.73;45.02;98236.44;1607621;89;25749;-64
2022/08/27 09:57:14;;;;;;;4.65;4.00;;;;;;;31.77;43.41;98238.48;1608025;89;25732;-61
2022/08/27 09:59:46;;;;;;;5.20;3.60;;;;;;;31.61;44.04;98233.30;1608172;89;26895;-62
2022/08/27 10:02:17;;;;;;;7.05;3.47;;;;;;;31.38;43.76;98231.83;1605443;89;25715;-57
2022/08/27 10:04:51;;;;;;;7.65;3.72;;;;;;;31.07;44.13;98230.59;1607594;89;25736;-57
2022/08/27 10:07:32;;;;;;;6.47;3.80;;;;;;;31.04;44.97;98225.87;1607732;89;25732;-56
2022/08/27 10:10:25;;;;;;;7.15;3.60;;;;;;;31.11;44.48;98231.88;1610613;88;25779;-56
2022/08/27 10:13:02;;;;;;;5.90;3.77;;;;;;;30.98;44.48;98234.80;1557826;91;27543;-56
2022/08/27 10:15:37;;;;;;;5.72;3.20;;;;;;;30.76;44.77;98229.33;1539088;92;25599;-56
2022/08/27 10:18:27;;;;;;;5.72;3.30;;;;;;;30.53;45.58;98230.61;1557034;92;25709;-56
2022/08/27 10:21:40;;;;;;;7.10;3.70;;;;;;;30.41;45.67;98217.52;1557609;92;25903;-56
2022/08/27 10:24:32;;;;;;;4.62;3.22;;;;;;;30.30;45.17;98227.01;1557680;92;25712;-56
2022/08/27 10:27:19;;;;;;;4.65;3.00;;;;;;;30.01;44.86;98222.37;1557628;92;27428;-56
2022/08/27 10:30:00;;;;;;;4.90;3.00;;;;;;;29.91;45.16;98223.70;1556508;92;25700;-55
2022/08/27 10:32:47;;;;;;;6.42;3.02;;;;;;;29.64;44.37;98212.33;1557782;92;25650;-56
2022/08/27 10:35:24;;;;;;;8.45;3.30;;;;;;;29.63;44.12;98209.97;1557514;92;25851;-56
2022/08/27 10:38:33;;;;;;;5.47;3.25;;;;;;;29.52;44.84;98208.28;1538013;92;25738;-56
2022/08/27 10:41:28;;;;;;;4.25;3.45;;;;;;;29.40;45.42;98206.27;1531640;93;27497;-55
2022/08/27 10:44:12;;;;;;;5.53;3.90;;;;;;;29.39;45.13;98202.64;1531647;93;25889;-56
2022/08/27 10:46:49;;;;;;;4.42;3.52;;;;;;;29.34;46.48;98205.26;1531627;93;25796;-56
2022/08/27 10:49:26;;;;;;;8.33;3.83;;;;;;;29.27;47.51;98201.42;1540290;92;25748;-57
2022/08/27 10:52:22;;;;;;;8.60;4.10;;;;;;;29.22;46.83;98198.39;1559681;92;25814;-56
2022/08/27 10:54:57;;;;;;;5.75;3.77;;;;;;;29.34;46.48;98203.84;1559166;92;27443;-56
2022/08/27 10:57:35;;;;;;;6.00;4.03;;;;;;;29.32;47.85;98197.25;1559720;92;25732;-56
2022/08/27 11:00:15;;;;;;;5.12;3.80;;;;;;;29.54;47.97;98200.16;1559360;92;25589;-57
2022/08/27 11:02:53;;;;;;;5.75;3.83;;;;;;;29.70;47.67;98200.47;1559717;92;25609;-63
2022/08/27 11:05:25;;;;;;;6.25;3.72;;;;;;;29.60;48.41;98200.38;1559548;92;25584;-61
2022/08/27 11:07:56;;;;;;;7.17;4.08;;;;;;;29.34;47.99;98197.59;1559756;92;27622;-63
2022/08/27 11:10:48;;;;;;;5.83;3.95;;;;;;;29.34;47.17;98205.26;1555306;90;25781;-60
2022/08/27 11:13:38;;;;;;;6.55;4.30;;;;;;;29.08;47.06;98202.47;1553056;92;25558;-64
2022/08/27 11:16:19;;;;;;;6.10;3.98;;;;;;;28.93;47.14;98193.80;1605657;89;26335;-60
2022/08/27 11:18:56;;;;;;;4.47;3.72;;;;;;;28.98;47.52;98184.66;1603512;89;25466;-64
2022/08/27 11:21:36;;;;;;;6.28;4.05;;;;;;;28.95;47.56;98185.56;1607806;89;27465;-59
2022/08/27 11:24:46;;;;;;;5.10;3.83;;;;;;;28.89;48.43;98181.86;1607729;89;27222;-59
2022/08/27 11:27:19;;;;;;;4.80;3.90;;;;;;;28.88;48.22;98181.70;1607773;89;25693;-60
2022/08/27 11:29:59;;;;;;;6.08;4.03;;;;;;;28.91;48.80;98185.03;1607653;88;26188;-63
2022/08/27 11:32:55;;;;;;;5.78;3.67;;;;;;;28.65;47.81;98177.17;1607988;89;25514;-64
2022/08/27 11:35:29;;;;;;;4.87;3.65;;;;;;;28.47;48.98;98179.93;1608057;89;28453;-63
2022/08/27 11:38:04;;;;;;;5.95;4.03;;;;;;;28.65;49.20;98192.06;1607053;89;25515;-59
2022/08/27 11:40:38;;;;;;;7.10;3.60;;;;;;;28.61;47.98;98189.19;1607774;89;25641;-61
2022/08/27 11:43:10;;;;;;;10.08;3.77;;;;;;;28.56;48.16;98179.26;1607219;89;25924;-62
2022/08/27 11:45:41;;;;;;;7.85;3.83;;;;;;;28.51;48.09;98178.39;1607952;89;25534;-60
2022/08/27 11:48:21;;;;;;;5.97;3.83;;;;;;;28.53;48.40;98176.70;1605968;89;28520;-61
2022/08/27 11:51:04;;;;;;;6.35;4.15;;;;;;;28.81;48.22;98180.49;1607902;89;25938;-60
2022/08/27 11:53:35;;;;;;;7.40;4.00;;;;;;;29.14;48.35;98174.66;1607980;89;25663;-58
2022/08/27 11:56:35;;;;;;;4.78;3.55;;;;;;;29.16;47.66;98174.20;1606744;89;26678;-59
2022/08/27 11:59:29;;;;;;;8.15;3.90;;;;;;;29.29;47.52;98184.05;1607966;89;25686;-59
2022/08/27 12:02:18;;;;;;;6.45;4.25;;;;;;;29.54;47.48;98190.27;1607753;89;28698;-58